Whitewater Creek, Colorado (Grand Mesa) Weather observations

Data are for observation ending at time listed.
 Day   Time    Ave.   Ave.  Ave.  Vector   Max.    Total    Solar   Ave.  
  of    of     Air    Rel.  Wind   Wind    Wind   Precip.   Rad.    Soil  
Year   Day     Temp.  Hum.  Speed  Dir.    Gust                     Temp. 
2015   (MST)    F      %     mph   deg.    mph      in.     W/m2     F   
------------------------------------------------------------------------------
 243   23:20   45.9    84    2.2   239      2.2    99999.00   99999    99999.0
 243   23:30   45.2    86    2.2   239      2.2    99999.00   99999    99999.0
 243   23:40   44.8    86    2.2   238      2.2    99999.00   99999    99999.0
 243   23:50   45.7    83    2.2   238      2.2    99999.00   99999    99999.0
 244    0:00   45.8    82    2.2   238      2.2    99999.00   99999    99999.0
 244    0:10   45.7    81    2.2   213      2.2    99999.00   99999    99999.0
 244    0:20   46.4    79    2.3   196      3.5    99999.00   99999    99999.0
 244    0:30   47.7    75    3.0   210      4.8    99999.00   99999    99999.0
 244    0:40   47.4    76    3.2   212      4.8    99999.00   99999    99999.0
 244    0:50   47.2    77    2.9   204      6.1    99999.00   99999    99999.0
 244    1:00   47.3    78    2.5   200      6.1    99999.00   99999    99999.0
 244    1:10   47.8    77    2.2   201      2.2    99999.00   99999    99999.0
 244    1:20   48.1    76    2.2   203      2.2    99999.00   99999    99999.0
 244    1:30   48.2    77    2.5   229      3.5    99999.00   99999    99999.0
 244    1:40   48.6    76    2.2   231      2.2    99999.00   99999    99999.0
 244    1:50   48.1    77    2.2   232      2.2    99999.00   99999    99999.0
 244    2:00   48.1    76    2.2   232      2.2    99999.00   99999    99999.0
 244    2:10   47.0    77    2.2   225      2.2    99999.00   99999    99999.0
 244    2:20   46.5    78    3.0   217      6.1    99999.00   99999    99999.0
 244    2:30   46.6    79    4.1   217      7.4    99999.00   99999    99999.0
 244    2:40   47.4    78    4.5   212      7.4    99999.00   99999    99999.0
 244    2:50   47.8    78    6.4   214      9.9    99999.00   99999    99999.0
 244    3:00   47.9    77    7.1   214     11.2    99999.00   99999    99999.0
 244    3:10   47.8    77    4.9   218      8.6    99999.00   99999    99999.0
 244    3:20   47.6    77    3.8   219      4.8    99999.00   99999    99999.0
 244    3:30   47.9    76    3.5   213      4.8    99999.00   99999    99999.0
 244    3:40   47.2    78    3.6   204      4.8    99999.00   99999    99999.0
 244    3:50   46.1    80    3.6   204      4.8    99999.00   99999    99999.0
 244    4:00   45.5    82    4.1   204      6.1    99999.00   99999    99999.0
 244    4:10   46.5    79    5.0   209      7.4    99999.00   99999    99999.0
 244    4:20   46.3    80    4.5   214      7.4    99999.00   99999    99999.0
 244    4:30   46.0    81    5.6   214      7.4    99999.00   99999    99999.0
 244    4:40   46.2    81    4.9   214      7.4    99999.00   99999    99999.0
 244    4:50   46.7    80    4.4   215      6.1    99999.00   99999    99999.0
 244    5:00   46.1    81    3.6   214      4.8    99999.00   99999    99999.0
 244    5:10   46.6    80    4.3   214      6.1    99999.00   99999    99999.0
 244    5:20   46.2    81    3.3   214      4.8    99999.00   99999    99999.0
 244    5:30   46.4    80    4.0   218      4.8    99999.00   99999    99999.0
 244    5:40   46.0    80    4.1   231      7.4    99999.00   99999    99999.0
 244    5:50   45.8    81    4.2   245      7.4    99999.00   99999    99999.0
 244    6:00   45.6    81    3.3   213      4.8    99999.00   99999    99999.0
 244    6:10   47.1    78    3.8   196      7.4    99999.00   99999    99999.0
 244    6:20   48.5    76    4.8   192      8.6    99999.00   99999    99999.0
 244    6:30   49.6    74    4.8   194      8.6    99999.00   99999    99999.0
 244    6:40   49.0    75    4.8   191      7.4    99999.00   99999    99999.0
 244    6:50   48.8    76    3.7   203      7.4    99999.00   99999    99999.0
 244    7:00   50.6    72    5.5   192      9.9    99999.00   99999    99999.0
 244    7:10   52.8    70    6.0   199      8.6    99999.00   99999    99999.0
 244    7:20   51.7    73    4.8   196      8.6    99999.00   99999    99999.0
 244    7:30   51.6    73    4.9   197      8.6    99999.00   99999    99999.0
 244    7:40   51.5    72    5.5   185      8.6    99999.00   99999    99999.0
 244    7:50   51.5    73    5.4   185      8.6    99999.00   99999    99999.0
 244    8:00   52.0    73    4.3   188      7.4    99999.00   99999    99999.0
 244    8:10   52.6    72    4.1   198      7.4    99999.00   99999    99999.0
 244    8:20   53.1    70    4.8   204      8.6    99999.00   99999    99999.0
 244    8:30   54.2    68    4.4   220      7.4    99999.00   99999    99999.0
 244    8:40   55.1    66    5.7   224     11.2    99999.00   99999    99999.0
 244    8:50   56.1    63    6.9   217     11.2    99999.00   99999    99999.0
 244    9:00   56.0    62    8.7   209     13.8    99999.00   99999    99999.0
 244    9:10   55.7    62    7.3   219     11.2    99999.00   99999    99999.0
 244    9:20   57.2    61    6.7   210     13.8    99999.00   99999    99999.0
 244    9:30   57.0    61    7.0   211     11.2    99999.00   99999    99999.0
 244    9:40   56.9    59    6.7   210     11.2    99999.00   99999    99999.0
 244    9:50   57.1    57    5.5   218     11.2    99999.00   99999    99999.0
 244   10:00   57.8    56    5.8   208     11.2    99999.00   99999    99999.0
 244   10:10   57.8    55    5.5   227      9.9    99999.00   99999    99999.0
 244   10:20   57.9    56    5.4   215     13.8    99999.00   99999    99999.0
 244   10:30   58.6    53    6.4   211     11.2    99999.00   99999    99999.0
 244   10:40   57.9    57    4.9   235     11.2    99999.00   99999    99999.0
 244   10:50   58.1    56    4.9   217     11.2    99999.00   99999    99999.0
 244   11:00   59.0    49    4.7   214      9.9    99999.00   99999    99999.0
 244   11:10   59.9    52    5.1   230     12.5    99999.00   99999    99999.0
 244   11:20   58.5    57    5.7   244     11.2    99999.00   99999    99999.0
 244   11:30   59.2    56    5.9   243     13.8    99999.00   99999    99999.0
 244   11:40   60.0    45    8.1   197     15.0    99999.00   99999    99999.0
 244   11:50   60.2    47    8.2   202     18.9    99999.00   99999    99999.0
 244   12:00   59.4    48    7.5   217     13.8    99999.00   99999    99999.0
 244   12:10   60.7    42    6.3   195     16.3    99999.00   99999    99999.0
 244   12:20   60.1    44    8.4   205     13.8    99999.00   99999    99999.0
 244   12:30   59.2    44   10.4   211     16.3    99999.00   99999    99999.0
 244   12:40   59.0    51    8.2   218     13.8    99999.00   99999    99999.0
 244   12:50   58.9    51    8.1   204     13.8    99999.00   99999    99999.0
 244   13:00   58.6    53    6.6   216     12.5    99999.00   99999    99999.0
 244   13:10   58.9    51    9.6   206     15.0    99999.00   99999    99999.0
 244   13:20   59.9    48    7.4   202     13.8    99999.00   99999    99999.0
 244   13:30   60.7    47    7.9   215     15.0    99999.00   99999    99999.0
 244   13:40   60.3    44    9.9   218     17.6    99999.00   99999    99999.0
 244   13:50   60.2    48   11.9   210     18.9    99999.00   99999    99999.0
 244   14:00   60.9    45    6.8   233     15.0    99999.00   99999    99999.0
 244   14:10   61.1    47    7.2   222     15.0    99999.00   99999    99999.0
 244   14:20   61.0    46    6.7   200     12.5    99999.00   99999    99999.0
 244   14:30   61.4    46    5.9   211     13.8    99999.00   99999    99999.0
 244   14:40   61.5    43    5.4   209     12.5    99999.00   99999    99999.0
 244   14:50   62.4    40    3.8   203     12.5    99999.00   99999    99999.0
 244   15:00   62.5    38    5.2   200     11.2    99999.00   99999    99999.0
 244   15:10   62.2    40    5.8   200     11.2    99999.00   99999    99999.0
 244   15:20   62.3    39    6.0   216     12.5    99999.00   99999    99999.0
 244   15:30   62.4    40    6.4   195     15.0    99999.00   99999    99999.0
 244   15:40   62.4    41    8.4   196     15.0    99999.00   99999    99999.0
 244   15:50   61.1    43    6.6   216     12.5    99999.00   99999    99999.0
 244   16:00   61.9    43    5.7   224     11.2    99999.00   99999    99999.0
 244   16:10   61.3    44    7.5   206     13.8    99999.00   99999    99999.0
 244   16:20   60.7    45    4.1   223      7.4    99999.00   99999    99999.0
 244   16:30   59.6    45    5.4   195      9.9    99999.00   99999    99999.0
 244   16:40   59.2    46    3.5   195      6.1    99999.00   99999    99999.0
 244   16:50   58.9    47    4.1   220      8.6    99999.00   99999    99999.0
 244   17:00   58.5    48    6.1   212      9.9    99999.00   99999    99999.0
 244   17:10   58.3    50    3.1   210      6.1    99999.00   99999    99999.0
 244   17:20   57.9    54    2.2   211      2.2    99999.00   99999    99999.0
 244   17:30   57.5    53    2.2   218      2.2    99999.00   99999    99999.0
 244   17:40   56.9    56    2.3   228      4.8    99999.00   99999    99999.0
 244   17:50   56.8    51    3.7   242      8.6    99999.00   99999    99999.0
 244   18:00   56.1    53    4.1   251      6.1    99999.00   99999    99999.0
 244   18:10   55.8    53    4.7   247     11.2    99999.00   99999    99999.0
 244   18:20   56.1    50    6.7   269     12.5    99999.00   99999    99999.0
 244   18:30   55.5    56   11.1   291     24.0    99999.00   99999    99999.0
 244   18:40   53.3    65    6.8   331     15.0    99999.00   99999    99999.0
 244   18:50   50.6    69    8.4   354     16.3    99999.00   99999    99999.0
 244   19:00   49.5    72   12.3    31     22.7    99999.00   99999    99999.0
 244   19:10   48.3    75   13.3    34     18.9    99999.00   99999    99999.0
 244   19:20   46.9    83   11.9    34     16.3    99999.00   99999    99999.0
 244   19:30   45.6    88    8.6    34     13.8    99999.00   99999    99999.0
 244   19:40   45.3    90    3.9    55      8.6    99999.00   99999    99999.0
 244   19:50   45.6    88    2.4    19      4.8    99999.00   99999    99999.0
 244   20:00   46.2    84    2.2   344      2.2    99999.00   99999    99999.0
 244   20:10   47.4    79    2.2   314      2.2    99999.00   99999    99999.0
 244   20:20   47.7    79    2.2   307      2.2    99999.00   99999    99999.0
 244   20:30   47.7    78    2.2   257      2.2    99999.00   99999    99999.0
 244   20:40   48.7    73    2.2   247      2.2    99999.00   99999    99999.0
 244   20:50   48.8    73    2.8   215      7.4    99999.00   99999    99999.0
 244   21:00   48.1    74    2.7   217      4.8    99999.00   99999    99999.0
 244   21:10   49.0    68    2.6   218      4.8    99999.00   99999    99999.0
 244   21:20   49.7    64    2.2   207      2.2    99999.00   99999    99999.0
 244   21:30   50.2    61    2.5   209      4.8    99999.00   99999    99999.0
 244   21:40   50.3    64    4.2   224      6.1    99999.00   99999    99999.0
 244   21:50   50.1    66    4.0   225      6.1    99999.00   99999    99999.0
 244   22:00   50.2    64    5.7   212      8.6    99999.00   99999    99999.0
 244   22:10   50.1    64    4.2   223      7.4    99999.00   99999    99999.0
 244   22:20   51.3    59    7.7   204     16.3    99999.00   99999    99999.0
 244   22:30   52.2    58    5.7   215      9.9    99999.00   99999    99999.0
 244   22:40   51.2    60    4.0   228      6.1    99999.00   99999    99999.0
 244   22:50   50.1    64    5.9   217     11.2    99999.00   99999    99999.0
 244   23:00   49.8    63    5.0   232      7.4    99999.00   99999    99999.0
 244   23:10   48.4    67    4.2   219      9.9    99999.00   99999    99999.0

Return to Whitewater Creek, Colorado graphs page.


Western Regional Climate Center,wrcc@dri.edu